Ater, Texas
Current Conditions -  °F | °C
As of 11:15 AM on Friday 24 Oct 2014 (Local Time) from KGOP Reporting Station
Clear Clear  
Wind Chill: 75°   Ceiling: Unl
Heat Index: 75°   Visibility: 10mi
Dew Point: 57°   Wind: 0mph
Humidity: 53%   Direction: NA
Pressure: 30.21"   Gusts: NA
Location:  31.392°N, 97.7452°W
Report Text: KGOP 241615Z AUTO 00000KT 10SM CLR 24/14 A3021 RMK AO2
Loading
Personal Weather Stations






























Interactive Weather Map New forecast layout! Learn more

10-Day Weather Forecast

Advertisements
Track Severe Weather on mobile